Ship Status Report: callsign BAREU51

sailwx.info

Track history (hours):
 
Tides and Currents Weather Stations Pressure Air Temp Water Temp Dewpoint Dewpoint Depression Visibility Wind Speed Wind Dir Waves Ship Positions

Callsign BAREU51 (name unknown)

Last reported at 2015-Apr-19 12:00 UTC. Time now 2015-Apr-19 12:39 UTC.
Position N 42°42' E 010°00'.

Barometer 1016.6 mb
Air temperature 15.9 ° C

Date/timePositionNaut miles runAvg speedWind from/ knotsBaromVisibWave heightAir tempDewpointWater temp
2015-Apr-19 12:00N 42°42' E 010°00'2121.4 1016.6 15.9
2015-Apr-19 11:00N 42°30' E 010°24'2727.4 1016.7 14.8
2015-Apr-19 10:00N 42°06' E 010°42'2020.1 1016.5 15.4
2015-Apr-19 09:00N 41°48' E 010°54'2827.5 1014.9 14.2
2015-Apr-19 08:00N 41°24' E 011°12'2020.1 1015.4 15.9
2015-Apr-19 07:00N 41°06' E 011°24'2827.6 1014.5 16.1
2015-Apr-19 06:00N 40°42' E 011°42'2020.2 1014.3 16.0
2015-Apr-19 05:00N 40°24' E 011°54'2020.2 1013.7 15.8
2015-Apr-19 04:00N 40°06' E 012°06'2827.7 1013.3 15.7
2015-Apr-19 03:00N 39°42' E 012°24'2020.2 1014.0 15.7
2015-Apr-19 02:00N 39°24' E 012°36'2625.7 1013.1 15.9
2015-Apr-19 01:00N 39°00' E 012°48'2020.3 1013.1 16.0
2015-Apr-19 00:00N 38°42' E 013°00'2827.8 1013.6 16.0
2015-Apr-18 23:00N 38°18' E 013°18'8 1.1 1014.2 16.4
2015-Apr-18 16:00N 38°12' E 013°24'2322.9 1013.7 18.5
2015-Apr-18 15:00N 38°30' E 013°06'2625.8 1013.7 18.2
2015-Apr-18 14:00N 38°54' E 012°54'2020.3 1014.4 18.3
2015-Apr-18 13:00N 39°12' E 012°42'2827.7 1014.8 17.6
2015-Apr-18 12:00N 39°36' E 012°24'2020.2 1015.5 16.9
2015-Apr-18 11:00N 39°54' E 012°12'2625.7 1016.0 16.4
2015-Apr-18 10:00N 40°18' E 012°00'2322.6 1016.7 18.1
2015-Apr-18 09:00N 40°36' E 011°42'2625.7 1016.6 17.3
2015-Apr-18 08:00N 41°00' E 011°30'2020.1 1015.8 16.5
2015-Apr-18 07:00N 41°18' E 011°18'2827.5 1015.9 15.7
2015-Apr-18 06:00N 41°42' E 011°00'2020.1 1015.2 15.5
2015-Apr-18 05:00N 42°00' E 010°48'2625.6 1014.5 14.7
2015-Apr-18 04:00N 42°24' E 010°36'2121.4 1014.6 14.8
2015-Apr-18 03:00N 42°36' E 010°12'2020.0 1014.1 14.8
2015-Apr-18 02:00N 42°54' E 010°00'1918.5 1014.2 14.9
2015-Apr-18 01:00N 43°12' E 009°54'2727.3 1014.7 15.4
2015-Apr-18 00:00N 43°36' E 009°36'2222.2 1014.7 15.1
2015-Apr-17 23:00N 43°54' E 009°18'2020.0 1014.9 15.4
2015-Apr-17 22:00N 44°12' E 009°06'6 0.9 1015.0 14.8
2015-Apr-17 15:00N 44°18' E 009°06'2625.5 1014.7 15.8
2015-Apr-17 14:00N 43°54' E 009°18'2222.2 1015.4 16.8
2015-Apr-17 13:00N 43°36' E 009°36'2727.3 1016.2 16.5
2015-Apr-17 12:00N 43°12' E 009°54'1918.5 1017.4 16.6
2015-Apr-17 11:00N 42°54' E 010°00'2222.3 1017.1 16.6
2015-Apr-17 10:00N 42°36' E 010°18'2222.4 1018.0 17.1
2015-Apr-17 09:00N 42°18' E 010°36'2727.5 1018.1 17.8
2015-Apr-17 08:00N 41°54' E 010°54'2020.1 1018.3 16.2
2015-Apr-17 07:00N 41°36' E 011°06'2625.6 1018.3 15.8
2015-Apr-17 06:00N 41°12' E 011°18'2322.5 1017.5 15.3
2015-Apr-17 05:00N 40°54' E 011°36'2625.7 1018.5 15.4
2015-Apr-17 04:00N 40°30' E 011°48'2322.6 1018.8 15.8
2015-Apr-17 03:00N 40°12' E 012°06'2625.7 1018.5 15.7
2015-Apr-17 02:00N 39°48' E 012°18'2625.7 1019.5 16.4
2015-Apr-17 01:00N 39°24' E 012°30'2322.8 1020.0 16.3
2015-Apr-17 00:00N 39°06' E 012°48'2625.8 1020.5 16.5
2015-Apr-16 23:00N 38°42' E 013°00'2322.9 1021.6 16.0
2015-Apr-16 22:00N 38°24' E 013°18'8 1.3 1021.2 16.2
2015-Apr-16 16:00N 38°18' E 013°24'2322.9 1020.5 17.6
2015-Apr-16 15:00N 38°36' E 013°06'2827.8 1020.7 17.7
2015-Apr-16 14:00N 39°00' E 012°48'2625.7 1021.1 17.8
2015-Apr-16 13:00N 39°24' E 012°36'2020.2 1022.3 18.0
2015-Apr-16 12:00N 39°42' E 012°24'2322.7 1022.2 17.5
2015-Apr-16 11:00N 40°00' E 012°06'2625.7 1022.5 17.9
2015-Apr-16 10:00N 40°24' E 011°54'2020.2 1022.8 17.4
2015-Apr-16 09:00N 40°42' E 011°42'2020.2 1022.7 16.2
2015-Apr-16 08:00N 41°00' E 011°30'2020.1 1022.1 14.7
2015-Apr-16 07:00N 41°18' E 011°18'2222.5 1021.8 12.9
2015-Apr-16 06:00N 41°36' E 011°00'2625.6 1021.6 11.6
2015-Apr-16 05:00N 42°00' E 010°48'2020.1 1021.3 11.4
2015-Apr-16 04:00N 42°18' E 010°36'2525.3 1021.1 12.7
2015-Apr-16 03:00N 42°36' E 010°12'4622.8 1020.7 12.2
2015-Apr-16 01:00N 43°18' E 009°48'2020.0 1021.3 13.4
2015-Apr-16 00:00N 43°36' E 009°36'2222.2 1021.7 15.1
2015-Apr-15 23:00N 43°54' E 009°18'2727.3 1022.3 14.2
2015-Apr-15 22:00N 44°18' E 009°00'7 1.5 1022.7 13.7
2015-Apr-15 17:00N 44°24' E 008°54'2222.1 1022.6 14.7
2015-Apr-15 16:00N 44°06' E 009°12'2727.3 1022.2 15.1
2015-Apr-15 15:00N 43°42' E 009°30'2222.2 1022.4 15.8
2015-Apr-15 14:00N 43°24' E 009°48'2625.5 1023.2 16.4
2015-Apr-15 13:00N 43°00' E 010°00'2625.6 1023.8 16.7
2015-Apr-15 12:00N 42°36' E 010°12'2525.3 1024.8 16.9
2015-Apr-15 11:00N 42°18' E 010°36'2625.6 1025.1 15.9
2015-Apr-15 10:00N 41°54' E 010°48'2222.5 1025.1 16.8
2015-Apr-15 09:00N 41°36' E 011°06'2827.5 1025.1 15.9
2015-Apr-15 08:00N 41°12' E 011°24'1312.8 1025.1 13.2
2015-Apr-15 07:00N 41°00' E 011°30'2020.2 1025.0 12.8
2015-Apr-15 06:00N 40°42' E 011°42'2625.7 1024.6 13.1
2015-Apr-15 05:00N 40°18' E 011°54'2322.7 1024.4 12.5
2015-Apr-15 04:00N 40°00' E 012°12'2020.2 1024.1 12.9
2015-Apr-15 03:00N 39°42' E 012°24'2625.7 1024.2 14.0
2015-Apr-15 02:00N 39°18' E 012°36'2322.8 1024.4 14.3
2015-Apr-15 01:00N 39°00' E 012°54'2625.8 1025.1 14.6
2015-Apr-15 00:00N 38°36' E 013°06'2020.3 1025.6 14.7
2015-Apr-14 23:00N 38°18' E 013°18'13 2.1 1026.1 14.8
2015-Apr-14 17:00N 38°06' E 013°24'6 6.0 1026.3 16.2
2015-Apr-14 16:00N 38°12' E 013°24'2020.3 1025.9 17.4
2015-Apr-14 15:00N 38°30' E 013°12'2827.8 1025.9 17.4
2015-Apr-14 14:00N 38°54' E 012°54'2020.3 1026.0 16.5
2015-Apr-14 13:00N 39°12' E 012°42'2827.7 1026.6 16.3
2015-Apr-14 12:00N 39°36' E 012°24'2020.2 1027.1 16.6
2015-Apr-14 11:00N 39°54' E 012°12'2625.7 1027.3 16.1
2015-Apr-14 10:00N 40°18' E 012°00'2020.2 1027.7 16.2
2015-Apr-14 09:00N 40°36' E 011°48'2827.6 1027.4 16.0
2015-Apr-14 08:00N 41°00' E 011°30'2020.1 1027.2 15.3
2015-Apr-14 07:00N 41°18' E 011°18'2222.5 1026.8 14.7
2015-Apr-14 06:00N 41°36' E 011°00'2625.6 1026.9 14.6
2015-Apr-14 05:00N 42°00' E 010°48'2020.1 1026.6 14.7
2015-Apr-14 04:00N 42°18' E 010°36'2525.3 1026.2 14.1
2015-Apr-14 03:00N 42°36' E 010°12'2020.0 1026.2 14.6
2015-Apr-14 02:00N 42°54' E 010°00'2625.5 1026.5 14.9
2015-Apr-14 01:00N 43°18' E 009°48'4221.0 1026.8 15.3
2015-Apr-13 23:00N 43°54' E 009°18'2727.3 1026.9 14.6
2015-Apr-13 22:00N 44°18' E 009°00'7 3.7 1027.4 15.0
2015-Apr-13 20:00N 44°24' E 008°54'0 0.0 1028.2 15.2
2015-Apr-13 08:00N 44°24' E 008°54'0 0.0 1029.7 15.6
2015-Apr-13 00:00N 44°24' E 008°54'4 0.6 1028.8 15.4
2015-Apr-12 17:00N 44°24' E 009°00'2019.9 1028.1 15.9
2015-Apr-12 16:00N 44°06' E 009°12'2727.3 1027.5 15.5
2015-Apr-12 15:00N 43°42' E 009°30'2222.2 1027.8 15.5
2015-Apr-12 14:00N 43°24' E 009°48'2020.0 1028.2 15.1
2015-Apr-12 13:00N 43°06' E 010°00'2424.4 1028.6 15.2
2015-Apr-12 12:00N 42°42' E 010°06'2525.2 1029.2 15.0
2015-Apr-12 11:00N 42°24' E 010°30'2020.1 1029.6 15.0
2015-Apr-12 10:00N 42°06' E 010°42'2727.5 1030.1 15.1
2015-Apr-12 09:00N 41°42' E 011°00'2020.1 1029.8 15.3
2015-Apr-12 08:00N 41°24' E 011°12'2827.6 1029.1 15.7
2015-Apr-12 07:00N 41°00' E 011°30'2020.2 1029.0 14.4
2015-Apr-12 06:00N 40°42' E 011°42'2625.7 1029.0 14.3
2015-Apr-12 05:00N 40°18' E 011°54'2322.7 1028.3 13.8
2015-Apr-12 04:00N 40°00' E 012°12'4622.9 1027.9 14.0
2015-Apr-12 02:00N 39°18' E 012°36'2020.3 1028.0 13.9
2015-Apr-12 01:00N 39°00' E 012°48'5125.3 1028.2 14.0
2015-Apr-11 23:00N 38°18' E 013°24'0 0.0 1028.2 13.9
2015-Apr-11 16:00N 38°18' E 013°24'2322.9 1026.9 15.6
2015-Apr-11 15:00N 38°36' E 013°06'2020.3 1027.0 16.3
2015-Apr-11 14:00N 38°54' E 012°54'2827.8 1027.2 15.8
2015-Apr-11 13:00N 39°18' E 012°36'2020.2 1027.3 15.4
2015-Apr-11 12:00N 39°36' E 012°24'2625.7 1027.2 15.6
2015-Apr-11 11:00N 40°00' E 012°12'2020.2 1027.1 15.1
2015-Apr-11 10:00N 40°18' E 012°00'2322.6 1027.9 15.1
2015-Apr-11 09:00N 40°36' E 011°42'2625.7 1027.4 14.5
2015-Apr-11 08:00N 41°00' E 011°30'4823.8 1027.3 14.6
2015-Apr-11 06:00N 41°42' E 011°00'2020.1 1026.7 13.5
2015-Apr-11 05:00N 42°00' E 010°48'2020.1 1026.3 13.5
2015-Apr-11 04:00N 42°18' E 010°36'2525.3 1026.3 13.3
2015-Apr-11 03:00N 42°36' E 010°12'2020.0 1026.1 13.1
2015-Apr-11 02:00N 42°54' E 010°00'2625.5 1025.6 13.0
2015-Apr-11 01:00N 43°18' E 009°48'2020.0 1025.8 13.3
2015-Apr-11 00:00N 43°36' E 009°36'2222.2 1025.6 13.5
2015-Apr-10 23:00N 43°54' E 009°18'2727.3 1026.2 13.9
2015-Apr-10 22:00N 44°18' E 009°00'0 0.0 1027.3 13.4
2015-Apr-10 16:00N 44°18' E 009°00'2222.2 1027.5 14.9
2015-Apr-10 15:00N 44°00' E 009°18'2625.5 1027.8 15.1
2015-Apr-10 14:00N 43°36' E 009°30'2222.2 1028.2 14.9
2015-Apr-10 13:00N 43°18' E 009°48'2020.0 1028.6 15.7
2015-Apr-10 12:00N 43°00' E 010°00'2625.6 1029.0 16.0
2015-Apr-10 11:00N 42°36' E 010°12'2525.3 1029.6 15.5
2015-Apr-10 10:00N 42°18' E 010°36'2020.1 1030.0 15.7
2015-Apr-10 09:00N 42°00' E 010°48'2727.5 1029.9 15.4
2015-Apr-10 08:00N 41°36' E 011°06'2020.1 1029.9 15.1
2015-Apr-10 07:00N 41°18' E 011°18'2020.1 1029.6 14.8
2015-Apr-10 06:00N 41°00' E 011°30'2827.6 1029.5 14.0
2015-Apr-10 05:00N 40°36' E 011°48'2625.7 1029.6 13.1
2015-Apr-10 04:00N 40°12' E 012°00'2020.2 1029.3 13.0
2015-Apr-10 03:00N 39°54' E 012°12'2322.7 1029.2 12.8
2015-Apr-10 02:00N 39°36' E 012°30'2625.7 1029.2 13.1
2015-Apr-10 01:00N 39°12' E 012°42'2020.3 1029.4 13.3
2015-Apr-10 00:00N 38°54' E 012°54'2827.8 1029.6 13.5
2015-Apr-09 23:00N 38°30' E 013°12'2020.3 1029.5 13.8
2015-Apr-09 22:00N 38°12' E 013°24'6 1.0 1029.5 12.5
2015-Apr-09 16:00N 38°18' E 013°24'2322.9 1027.9 15.3
2015-Apr-09 15:00N 38°36' E 013°06'2020.3 1027.7 15.5
2015-Apr-09 14:00N 38°54' E 012°54'2827.8 1028.0 16.4
2015-Apr-09 13:00N 39°18' E 012°36'2020.2 1028.3 16.3
2015-Apr-09 12:00N 39°36' E 012°24'   1028.4 15.9
Track history (hours):
 
Tides and Currents Weather Stations Pressure Air Temp Water Temp Dewpoint Dewpoint Depression Visibility Wind Speed Wind Dir Waves Ship Positions

Callsign BAREU51 (name unknown)

Last reported at 2015-Apr-19 12:00 UTC. Time now 2015-Apr-19 12:39 UTC.
Position N 42°42' E 010°00'.

Barometer 1016.6 mb
Air temperature 15.9 ° C

Date/timePositionNaut miles runAvg speedWind from/ knotsBaromVisibWave heightAir tempDewpointWater temp
2015-Apr-19 12:00N 42°42' E 010°00'2121.4 1016.6 15.9
2015-Apr-19 11:00N 42°30' E 010°24'2727.4 1016.7 14.8
2015-Apr-19 10:00N 42°06' E 010°42'2020.1 1016.5 15.4
2015-Apr-19 09:00N 41°48' E 010°54'2827.5 1014.9 14.2
2015-Apr-19 08:00N 41°24' E 011°12'2020.1 1015.4 15.9
2015-Apr-19 07:00N 41°06' E 011°24'2827.6 1014.5 16.1
2015-Apr-19 06:00N 40°42' E 011°42'2020.2 1014.3 16.0
2015-Apr-19 05:00N 40°24' E 011°54'2020.2 1013.7 15.8
2015-Apr-19 04:00N 40°06' E 012°06'2827.7 1013.3 15.7
2015-Apr-19 03:00N 39°42' E 012°24'2020.2 1014.0 15.7
2015-Apr-19 02:00N 39°24' E 012°36'2625.7 1013.1 15.9
2015-Apr-19 01:00N 39°00' E 012°48'2020.3 1013.1 16.0
2015-Apr-19 00:00N 38°42' E 013°00'2827.8 1013.6 16.0
2015-Apr-18 23:00N 38°18' E 013°18'8 1.1 1014.2 16.4
2015-Apr-18 16:00N 38°12' E 013°24'2322.9 1013.7 18.5
2015-Apr-18 15:00N 38°30' E 013°06'2625.8 1013.7 18.2
2015-Apr-18 14:00N 38°54' E 012°54'2020.3 1014.4 18.3
2015-Apr-18 13:00N 39°12' E 012°42'2827.7 1014.8 17.6
2015-Apr-18 12:00N 39°36' E 012°24'2020.2 1015.5 16.9
2015-Apr-18 11:00N 39°54' E 012°12'2625.7 1016.0 16.4
2015-Apr-18 10:00N 40°18' E 012°00'2322.6 1016.7 18.1
2015-Apr-18 09:00N 40°36' E 011°42'2625.7 1016.6 17.3
2015-Apr-18 08:00N 41°00' E 011°30'2020.1 1015.8 16.5
2015-Apr-18 07:00N 41°18' E 011°18'2827.5 1015.9 15.7
2015-Apr-18 06:00N 41°42' E 011°00'2020.1 1015.2 15.5
2015-Apr-18 05:00N 42°00' E 010°48'2625.6 1014.5 14.7
2015-Apr-18 04:00N 42°24' E 010°36'2121.4 1014.6 14.8
2015-Apr-18 03:00N 42°36' E 010°12'2020.0 1014.1 14.8
2015-Apr-18 02:00N 42°54' E 010°00'1918.5 1014.2 14.9
2015-Apr-18 01:00N 43°12' E 009°54'2727.3 1014.7 15.4
2015-Apr-18 00:00N 43°36' E 009°36'2222.2 1014.7 15.1
2015-Apr-17 23:00N 43°54' E 009°18'2020.0 1014.9 15.4
2015-Apr-17 22:00N 44°12' E 009°06'6 0.9 1015.0 14.8
2015-Apr-17 15:00N 44°18' E 009°06'2625.5 1014.7 15.8
2015-Apr-17 14:00N 43°54' E 009°18'2222.2 1015.4 16.8
2015-Apr-17 13:00N 43°36' E 009°36'2727.3 1016.2 16.5
2015-Apr-17 12:00N 43°12' E 009°54'1918.5 1017.4 16.6
2015-Apr-17 11:00N 42°54' E 010°00'2222.3 1017.1 16.6
2015-Apr-17 10:00N 42°36' E 010°18'2222.4 1018.0 17.1
2015-Apr-17 09:00N 42°18' E 010°36'2727.5 1018.1 17.8
2015-Apr-17 08:00N 41°54' E 010°54'2020.1 1018.3 16.2
2015-Apr-17 07:00N 41°36' E 011°06'2625.6 1018.3 15.8
2015-Apr-17 06:00N 41°12' E 011°18'2322.5 1017.5 15.3
2015-Apr-17 05:00N 40°54' E 011°36'2625.7 1018.5 15.4
2015-Apr-17 04:00N 40°30' E 011°48'2322.6 1018.8 15.8
2015-Apr-17 03:00N 40°12' E 012°06'2625.7 1018.5 15.7
2015-Apr-17 02:00N 39°48' E 012°18'2625.7 1019.5 16.4
2015-Apr-17 01:00N 39°24' E 012°30'2322.8 1020.0 16.3
2015-Apr-17 00:00N 39°06' E 012°48'2625.8 1020.5 16.5
2015-Apr-16 23:00N 38°42' E 013°00'2322.9 1021.6 16.0
2015-Apr-16 22:00N 38°24' E 013°18'8 1.3 1021.2 16.2
2015-Apr-16 16:00N 38°18' E 013°24'2322.9 1020.5 17.6
2015-Apr-16 15:00N 38°36' E 013°06'2827.8 1020.7 17.7
2015-Apr-16 14:00N 39°00' E 012°48'2625.7 1021.1 17.8
2015-Apr-16 13:00N 39°24' E 012°36'2020.2 1022.3 18.0
2015-Apr-16 12:00N 39°42' E 012°24'2322.7 1022.2 17.5
2015-Apr-16 11:00N 40°00' E 012°06'2625.7 1022.5 17.9
2015-Apr-16 10:00N 40°24' E 011°54'2020.2 1022.8 17.4
2015-Apr-16 09:00N 40°42' E 011°42'2020.2 1022.7 16.2
2015-Apr-16 08:00N 41°00' E 011°30'2020.1 1022.1 14.7
2015-Apr-16 07:00N 41°18' E 011°18'2222.5 1021.8 12.9
2015-Apr-16 06:00N 41°36' E 011°00'2625.6 1021.6 11.6
2015-Apr-16 05:00N 42°00' E 010°48'2020.1 1021.3 11.4
2015-Apr-16 04:00N 42°18' E 010°36'2525.3 1021.1 12.7
2015-Apr-16 03:00N 42°36' E 010°12'4622.8 1020.7 12.2
2015-Apr-16 01:00N 43°18' E 009°48'2020.0 1021.3 13.4
2015-Apr-16 00:00N 43°36' E 009°36'2222.2 1021.7 15.1
2015-Apr-15 23:00N 43°54' E 009°18'2727.3 1022.3 14.2
2015-Apr-15 22:00N 44°18' E 009°00'7 1.5 1022.7 13.7
2015-Apr-15 17:00N 44°24' E 008°54'2222.1 1022.6 14.7
2015-Apr-15 16:00N 44°06' E 009°12'2727.3 1022.2 15.1
2015-Apr-15 15:00N 43°42' E 009°30'2222.2 1022.4 15.8
2015-Apr-15 14:00N 43°24' E 009°48'2625.5 1023.2 16.4
2015-Apr-15 13:00N 43°00' E 010°00'2625.6 1023.8 16.7
2015-Apr-15 12:00N 42°36' E 010°12'2525.3 1024.8 16.9
2015-Apr-15 11:00N 42°18' E 010°36'2625.6 1025.1 15.9
2015-Apr-15 10:00N 41°54' E 010°48'2222.5 1025.1 16.8
2015-Apr-15 09:00N 41°36' E 011°06'2827.5 1025.1 15.9
2015-Apr-15 08:00N 41°12' E 011°24'1312.8 1025.1 13.2
2015-Apr-15 07:00N 41°00' E 011°30'2020.2 1025.0 12.8
2015-Apr-15 06:00N 40°42' E 011°42'2625.7 1024.6 13.1
2015-Apr-15 05:00N 40°18' E 011°54'2322.7 1024.4 12.5
2015-Apr-15 04:00N 40°00' E 012°12'2020.2 1024.1 12.9
2015-Apr-15 03:00N 39°42' E 012°24'2625.7 1024.2 14.0
2015-Apr-15 02:00N 39°18' E 012°36'2322.8 1024.4 14.3
2015-Apr-15 01:00N 39°00' E 012°54'2625.8 1025.1 14.6
2015-Apr-15 00:00N 38°36' E 013°06'2020.3 1025.6 14.7
2015-Apr-14 23:00N 38°18' E 013°18'13 2.1 1026.1 14.8
2015-Apr-14 17:00N 38°06' E 013°24'6 6.0 1026.3 16.2
2015-Apr-14 16:00N 38°12' E 013°24'2020.3 1025.9 17.4
2015-Apr-14 15:00N 38°30' E 013°12'2827.8 1025.9 17.4
2015-Apr-14 14:00N 38°54' E 012°54'2020.3 1026.0 16.5
2015-Apr-14 13:00N 39°12' E 012°42'2827.7 1026.6 16.3
2015-Apr-14 12:00N 39°36' E 012°24'2020.2 1027.1 16.6
2015-Apr-14 11:00N 39°54' E 012°12'2625.7 1027.3 16.1
2015-Apr-14 10:00N 40°18' E 012°00'2020.2 1027.7 16.2
2015-Apr-14 09:00N 40°36' E 011°48'2827.6 1027.4 16.0
2015-Apr-14 08:00N 41°00' E 011°30'2020.1 1027.2 15.3
2015-Apr-14 07:00N 41°18' E 011°18'2222.5 1026.8 14.7
2015-Apr-14 06:00N 41°36' E 011°00'2625.6 1026.9 14.6
2015-Apr-14 05:00N 42°00' E 010°48'2020.1 1026.6 14.7
2015-Apr-14 04:00N 42°18' E 010°36'2525.3 1026.2 14.1
2015-Apr-14 03:00N 42°36' E 010°12'2020.0 1026.2 14.6
2015-Apr-14 02:00N 42°54' E 010°00'2625.5 1026.5 14.9
2015-Apr-14 01:00N 43°18' E 009°48'4221.0 1026.8 15.3
2015-Apr-13 23:00N 43°54' E 009°18'2727.3 1026.9 14.6
2015-Apr-13 22:00N 44°18' E 009°00'7 3.7 1027.4 15.0
2015-Apr-13 20:00N 44°24' E 008°54'0 0.0 1028.2 15.2
2015-Apr-13 08:00N 44°24' E 008°54'0 0.0 1029.7 15.6
2015-Apr-13 00:00N 44°24' E 008°54'4 0.6 1028.8 15.4
2015-Apr-12 17:00N 44°24' E 009°00'2019.9 1028.1 15.9
2015-Apr-12 16:00N 44°06' E 009°12'2727.3 1027.5 15.5
2015-Apr-12 15:00N 43°42' E 009°30'2222.2 1027.8 15.5
2015-Apr-12 14:00N 43°24' E 009°48'2020.0 1028.2 15.1
2015-Apr-12 13:00N 43°06' E 010°00'2424.4 1028.6 15.2
2015-Apr-12 12:00N 42°42' E 010°06'2525.2 1029.2 15.0
2015-Apr-12 11:00N 42°24' E 010°30'2020.1 1029.6 15.0
2015-Apr-12 10:00N 42°06' E 010°42'2727.5 1030.1 15.1
2015-Apr-12 09:00N 41°42' E 011°00'2020.1 1029.8 15.3
2015-Apr-12 08:00N 41°24' E 011°12'2827.6 1029.1 15.7
2015-Apr-12 07:00N 41°00' E 011°30'2020.2 1029.0 14.4
2015-Apr-12 06:00N 40°42' E 011°42'2625.7 1029.0 14.3
2015-Apr-12 05:00N 40°18' E 011°54'2322.7 1028.3 13.8
2015-Apr-12 04:00N 40°00' E 012°12'4622.9 1027.9 14.0
2015-Apr-12 02:00N 39°18' E 012°36'2020.3 1028.0 13.9
2015-Apr-12 01:00N 39°00' E 012°48'5125.3 1028.2 14.0
2015-Apr-11 23:00N 38°18' E 013°24'0 0.0 1028.2 13.9
2015-Apr-11 16:00N 38°18' E 013°24'2322.9 1026.9 15.6
2015-Apr-11 15:00N 38°36' E 013°06'2020.3 1027.0 16.3
2015-Apr-11 14:00N 38°54' E 012°54'2827.8 1027.2 15.8
2015-Apr-11 13:00N 39°18' E 012°36'2020.2 1027.3 15.4
2015-Apr-11 12:00N 39°36' E 012°24'2625.7 1027.2 15.6
2015-Apr-11 11:00N 40°00' E 012°12'2020.2 1027.1 15.1
2015-Apr-11 10:00N 40°18' E 012°00'2322.6 1027.9 15.1
2015-Apr-11 09:00N 40°36' E 011°42'2625.7 1027.4 14.5
2015-Apr-11 08:00N 41°00' E 011°30'4823.8 1027.3 14.6
2015-Apr-11 06:00N 41°42' E 011°00'2020.1 1026.7 13.5
2015-Apr-11 05:00N 42°00' E 010°48'2020.1 1026.3 13.5
2015-Apr-11 04:00N 42°18' E 010°36'2525.3 1026.3 13.3
2015-Apr-11 03:00N 42°36' E 010°12'2020.0 1026.1 13.1
2015-Apr-11 02:00N 42°54' E 010°00'2625.5 1025.6 13.0
2015-Apr-11 01:00N 43°18' E 009°48'2020.0 1025.8 13.3
2015-Apr-11 00:00N 43°36' E 009°36'2222.2 1025.6 13.5
2015-Apr-10 23:00N 43°54' E 009°18'2727.3 1026.2 13.9
2015-Apr-10 22:00N 44°18' E 009°00'0 0.0 1027.3 13.4
2015-Apr-10 16:00N 44°18' E 009°00'2222.2 1027.5 14.9
2015-Apr-10 15:00N 44°00' E 009°18'2625.5 1027.8 15.1
2015-Apr-10 14:00N 43°36' E 009°30'2222.2 1028.2 14.9
2015-Apr-10 13:00N 43°18' E 009°48'2020.0 1028.6 15.7
2015-Apr-10 12:00N 43°00' E 010°00'2625.6 1029.0 16.0
2015-Apr-10 11:00N 42°36' E 010°12'2525.3 1029.6 15.5
2015-Apr-10 10:00N 42°18' E 010°36'2020.1 1030.0 15.7
2015-Apr-10 09:00N 42°00' E 010°48'2727.5 1029.9 15.4
2015-Apr-10 08:00N 41°36' E 011°06'2020.1 1029.9 15.1
2015-Apr-10 07:00N 41°18' E 011°18'2020.1 1029.6 14.8
2015-Apr-10 06:00N 41°00' E 011°30'2827.6 1029.5 14.0
2015-Apr-10 05:00N 40°36' E 011°48'2625.7 1029.6 13.1
2015-Apr-10 04:00N 40°12' E 012°00'2020.2 1029.3 13.0
2015-Apr-10 03:00N 39°54' E 012°12'2322.7 1029.2 12.8
2015-Apr-10 02:00N 39°36' E 012°30'2625.7 1029.2 13.1
2015-Apr-10 01:00N 39°12' E 012°42'2020.3 1029.4 13.3
2015-Apr-10 00:00N 38°54' E 012°54'2827.8 1029.6 13.5
2015-Apr-09 23:00N 38°30' E 013°12'2020.3 1029.5 13.8
2015-Apr-09 22:00N 38°12' E 013°24'6 1.0 1029.5 12.5
2015-Apr-09 16:00N 38°18' E 013°24'2322.9 1027.9 15.3
2015-Apr-09 15:00N 38°36' E 013°06'2020.3 1027.7 15.5
2015-Apr-09 14:00N 38°54' E 012°54'2827.8 1028.0 16.4
2015-Apr-09 13:00N 39°18' E 012°36'2020.2 1028.3 16.3
2015-Apr-09 12:00N 39°36' E 012°24'   1028.4 15.9

Dump ship's entire track history